Time;durP1;ratioP1;P1;durP2;ratioP2;P2;SDS_P1;SDS_P2;PMS_P1;PMS_P2;Temp;Humidity;BMP_temperature;BMP_pressure;BME280_temperature;BME280_humidity;BME280_pressure;Samples;Min_cycle;Max_cycle;Signal;HPM_P1;HPM_P2
2022/04/30 00:00:29;;;;;;;;;;;16.70;62.60;;;;;;2029589;28;19905;-66
2022/04/30 00:01:27;;;;;;;;;;;16.70;62.60;;;;;;2029646;28;20335;-67
2022/04/30 00:02:26;;;;;;;;;;;16.70;63.00;;;;;;2029576;28;19911;-67
2022/04/30 00:03:26;;;;;;;;;;;16.70;62.80;;;;;;2029733;28;19944;-67
2022/04/30 00:04:25;;;;;;;;;;;16.70;63.00;;;;;;2029590;28;19966;-66
2022/04/30 00:05:24;;;;;;;;;;;16.70;63.00;;;;;;2029607;28;19943;-67
2022/04/30 00:06:22;;;;;;;;;;;16.70;63.00;;;;;;2029294;28;20029;-67
2022/04/30 00:07:21;;;;;;;;;;;16.70;63.10;;;;;;2029447;28;19915;-66
2022/04/30 00:08:19;;;;;;;;;;;16.70;63.10;;;;;;2029607;28;19935;-66
2022/04/30 00:09:18;;;;;;;;;;;16.70;63.40;;;;;;2029656;28;19947;-67
2022/04/30 00:10:16;;;;;;;;;;;16.70;63.00;;;;;;2029509;28;19904;-67
2022/04/30 00:11:15;;;;;;;;;;;16.70;62.90;;;;;;2029344;28;20008;-67
2022/04/30 00:12:13;;;;;;;;;;;16.70;63.00;;;;;;2029490;28;19904;-67
2022/04/30 00:13:12;;;;;;;;;;;16.50;62.80;;;;;;2029604;28;19904;-67
2022/04/30 00:14:10;;;;;;;;;;;16.70;63.30;;;;;;2029576;28;19916;-66
2022/04/30 00:15:09;;;;;;;;;;;16.70;63.10;;;;;;2029537;28;19905;-66
2022/04/30 00:16:07;;;;;;;;;;;16.70;63.20;;;;;;2029493;28;19908;-66
2022/04/30 00:17:06;;;;;;;;;;;16.70;63.20;;;;;;2029456;28;19911;-66
2022/04/30 00:18:05;;;;;;;;;;;16.70;63.30;;;;;;2029542;28;19980;-66
2022/04/30 00:19:03;;;;;;;;;;;16.70;63.00;;;;;;2029393;28;19904;-67
2022/04/30 00:20:03;;;;;;;;;;;16.70;62.80;;;;;;2029443;28;19904;-66
2022/04/30 00:21:01;;;;;;;;;;;16.70;62.80;;;;;;2029483;28;19909;-66
2022/04/30 00:22:00;;;;;;;;;;;16.60;62.90;;;;;;2029601;28;19910;-65
2022/04/30 00:22:58;;;;;;;;;;;16.60;62.60;;;;;;2029394;28;19904;-66
2022/04/30 00:23:57;;;;;;;;;;;16.70;63.00;;;;;;2029383;28;19995;-67
2022/04/30 00:24:55;;;;;;;;;;;16.60;62.90;;;;;;2029380;28;20049;-67
2022/04/30 00:25:55;;;;;;;;;;;16.60;62.80;;;;;;2029449;28;19911;-66
2022/04/30 00:26:56;;;;;;;;;;;16.60;63.10;;;;;;2029437;28;19954;-67
2022/04/30 00:27:54;;;;;;;;;;;16.70;63.10;;;;;;2029427;28;20396;-67
2022/04/30 00:28:52;;;;;;;;;;;16.70;63.00;;;;;;2029367;28;19904;-67
2022/04/30 00:29:52;;;;;;;;;;;16.60;62.80;;;;;;2029424;28;20271;-67
2022/04/30 00:30:50;;;;;;;;;;;16.70;62.80;;;;;;2029275;28;19904;-67
2022/04/30 00:31:49;;;;;;;;;;;16.70;62.90;;;;;;2029554;28;19950;-66
2022/04/30 00:32:48;;;;;;;;;;;16.70;62.90;;;;;;2029478;28;20336;-67
2022/04/30 00:33:48;;;;;;;;;;;16.70;63.00;;;;;;2029390;28;19905;-67
2022/04/30 00:34:47;;;;;;;;;;;16.70;63.00;;;;;;2029278;28;19904;-67
2022/04/30 00:35:45;;;;;;;;;;;16.60;62.70;;;;;;2029250;28;20045;-66
2022/04/30 00:36:43;;;;;;;;;;;16.60;62.70;;;;;;2029305;28;19951;-67
2022/04/30 00:37:42;;;;;;;;;;;16.60;62.80;;;;;;2029305;28;19911;-66
2022/04/30 00:38:41;;;;;;;;;;;16.60;62.70;;;;;;2029245;28;19909;-66
2022/04/30 00:39:39;;;;;;;;;;;16.60;63.30;;;;;;2029208;28;19904;-67
2022/04/30 00:40:38;;;;;;;;;;;16.60;63.00;;;;;;2029313;28;19912;-67
2022/04/30 00:41:40;;;;;;;;;;;16.60;63.20;;;;;;2029212;28;19904;-66
2022/04/30 00:42:38;;;;;;;;;;;16.60;63.60;;;;;;2029155;28;19995;-66
2022/04/30 00:43:44;;;;;;;;;;;16.60;63.40;;;;;;2029218;28;19927;-67
2022/04/30 00:44:43;;;;;;;;;;;16.60;63.10;;;;;;2029315;28;20374;-67
2022/04/30 00:45:45;;;;;;;;;;;16.70;63.60;;;;;;2029294;28;19966;-66
2022/04/30 00:46:44;;;;;;;;;;;16.60;64.00;;;;;;2036187;28;19904;-66
2022/04/30 00:47:42;;;;;;;;;;;16.60;63.30;;;;;;2036689;28;19904;-67
2022/04/30 00:48:42;;;;;;;;;;;16.60;63.20;;;;;;2029660;28;19909;-67
2022/04/30 00:49:40;;;;;;;;;;;16.60;63.40;;;;;;2029232;28;20421;-66
2022/04/30 00:50:39;;;;;;;;;;;16.60;63.40;;;;;;2029154;28;19990;-68
2022/04/30 00:51:40;;;;;;;;;;;16.60;63.50;;;;;;2029219;28;19908;-67
2022/04/30 00:52:39;;;;;;;;;;;16.60;63.40;;;;;;2029082;28;19999;-66
2022/04/30 00:53:38;;;;;;;;;;;16.60;63.40;;;;;;2029095;28;20294;-66
2022/04/30 00:54:37;;;;;;;;;;;16.60;63.60;;;;;;2029047;28;19911;-67
2022/04/30 00:55:36;;;;;;;;;;;16.60;63.80;;;;;;2029079;28;19911;-66
2022/04/30 00:56:47;;;;;;;;;;;16.60;63.80;;;;;;2028609;28;19908;-67
2022/04/30 00:57:45;;;;;;;;;;;16.60;63.30;;;;;;2028782;28;19930;-66
2022/04/30 00:58:47;;;;;;;;;;;16.60;63.50;;;;;;2029040;28;20374;-66
2022/04/30 00:59:47;;;;;;;;;;;16.60;64.10;;;;;;2029150;28;19904;-66
2022/04/30 01:00:47;;;;;;;;;;;16.60;63.90;;;;;;2029039;28;19962;-67
2022/04/30 01:01:46;;;;;;;;;;;16.60;63.60;;;;;;2028989;28;19958;-66
2022/04/30 01:02:44;;;;;;;;;;;16.60;63.80;;;;;;2029190;28;20001;-67
2022/04/30 01:03:43;;;;;;;;;;;16.60;63.70;;;;;;2029152;28;19970;-67
2022/04/30 01:04:41;;;;;;;;;;;16.60;63.30;;;;;;2028961;28;20217;-69
2022/04/30 01:05:40;;;;;;;;;;;16.60;63.40;;;;;;2029123;28;19966;-67
2022/04/30 01:07:00;;;;;;;;;;;16.60;63.40;;;;;;2028663;28;19973;-67
2022/04/30 01:07:58;;;;;;;;;;;16.60;63.30;;;;;;2028966;28;19951;-66
2022/04/30 01:08:56;;;;;;;;;;;16.60;63.60;;;;;;2028994;28;20397;-67
2022/04/30 01:09:55;;;;;;;;;;;16.60;63.60;;;;;;2029029;28;19904;-67
2022/04/30 01:10:59;;;;;;;;;;;16.60;64.20;;;;;;2029035;28;20052;-67
2022/04/30 01:12:01;;;;;;;;;;;16.60;63.70;;;;;;2029069;28;19940;-67
2022/04/30 01:12:59;;;;;;;;;;;16.60;63.80;;;;;;2028958;28;19904;-66
2022/04/30 01:13:58;;;;;;;;;;;16.60;63.40;;;;;;2029059;28;19930;-67
2022/04/30 01:14:57;;;;;;;;;;;16.60;63.80;;;;;;2028983;28;20063;-67
2022/04/30 01:15:58;;;;;;;;;;;16.60;63.70;;;;;;2029035;28;19933;-67
2022/04/30 01:16:57;;;;;;;;;;;16.60;64.00;;;;;;2028978;28;19911;-67
2022/04/30 01:17:55;;;;;;;;;;;16.50;63.80;;;;;;2028895;28;20383;-67
2022/04/30 01:18:55;;;;;;;;;;;16.50;63.20;;;;;;2029084;28;19996;-66
2022/04/30 01:19:54;;;;;;;;;;;16.60;63.70;;;;;;2028957;28;19908;-67
2022/04/30 01:20:54;;;;;;;;;;;16.60;63.60;;;;;;2028877;28;20003;-66
2022/04/30 01:21:57;;;;;;;;;;;16.60;63.80;;;;;;2028797;28;19994;-66
2022/04/30 01:23:00;;;;;;;;;;;16.50;64.20;;;;;;2028924;28;19904;-67
2022/04/30 01:24:00;;;;;;;;;;;16.50;64.60;;;;;;2029002;28;19904;-67
2022/04/30 01:24:59;;;;;;;;;;;16.50;64.00;;;;;;2028824;28;19904;-69
2022/04/30 01:25:58;;;;;;;;;;;16.50;64.50;;;;;;2036270;28;19904;-66
2022/04/30 01:26:57;;;;;;;;;;;16.50;64.60;;;;;;2036314;28;20329;-66
2022/04/30 01:27:56;;;;;;;;;;;16.50;64.40;;;;;;2029190;28;19904;-67
2022/04/30 01:28:56;;;;;;;;;;;16.50;64.50;;;;;;2028736;28;19905;-67
2022/04/30 01:29:55;;;;;;;;;;;16.50;64.20;;;;;;2028760;28;20002;-67
2022/04/30 01:30:54;;;;;;;;;;;16.60;64.50;;;;;;2028697;28;19912;-67
2022/04/30 01:37:23;;;;;;;;;;;16.50;64.80;;;;;;2031123;28;19999;-67
2022/04/30 01:38:22;;;;;;;;;;;16.50;64.30;;;;;;2030885;28;20368;-67
2022/04/30 01:39:20;;;;;;;;;;;16.50;64.50;;;;;;2032276;28;19904;-67
2022/04/30 01:40:18;;;;;;;;;;;16.50;64.20;;;;;;2031287;28;19911;-66
2022/04/30 01:41:17;;;;;;;;;;;16.50;64.20;;;;;;2032194;28;19904;-67
2022/04/30 01:42:16;;;;;;;;;;;16.50;64.20;;;;;;2033105;28;19992;-66
2022/04/30 01:43:16;;;;;;;;;;;16.50;64.60;;;;;;2031769;28;19911;-66
2022/04/30 01:44:14;;;;;;;;;;;16.50;64.60;;;;;;2029834;28;19949;-66
2022/04/30 01:45:14;;;;;;;;;;;16.60;64.20;;;;;;2029399;28;19957;-66
2022/04/30 01:46:12;;;;;;;;;;;16.50;64.50;;;;;;2029339;28;19905;-67
2022/04/30 01:47:11;;;;;;;;;;;16.50;64.10;;;;;;2029015;28;19954;-67
2022/04/30 01:48:13;;;;;;;;;;;16.50;64.10;;;;;;2028852;28;19904;-66
2022/04/30 01:49:16;;;;;;;;;;;16.50;64.00;;;;;;2029046;28;20318;-66
2022/04/30 01:50:15;;;;;;;;;;;16.50;64.10;;;;;;2028880;28;19904;-67
2022/04/30 01:51:14;;;;;;;;;;;16.50;64.20;;;;;;2028762;28;19958;-67
2022/04/30 01:52:16;;;;;;;;;;;16.50;64.20;;;;;;2028804;28;20248;-66
2022/04/30 01:53:15;;;;;;;;;;;16.50;64.60;;;;;;2028747;28;19905;-66
2022/04/30 01:54:14;;;;;;;;;;;16.60;64.40;;;;;;2028964;28;20259;-67
2022/04/30 01:55:12;;;;;;;;;;;16.50;64.50;;;;;;2028988;28;19922;-66
2022/04/30 01:56:10;;;;;;;;;;;16.50;64.40;;;;;;2028744;28;19908;-66
2022/04/30 01:57:09;;;;;;;;;;;16.50;64.20;;;;;;2028670;28;19904;-66
2022/04/30 01:58:07;;;;;;;;;;;16.50;64.60;;;;;;2028711;28;19905;-67
2022/04/30 01:59:06;;;;;;;;;;;16.50;64.30;;;;;;2028911;28;19905;-66
2022/04/30 02:00:05;;;;;;;;;;;16.50;64.80;;;;;;2028751;28;20339;-67
2022/04/30 02:01:07;;;;;;;;;;;16.50;64.60;;;;;;2028106;28;19908;-66
2022/04/30 02:02:06;;;;;;;;;;;16.50;64.40;;;;;;2028236;28;19905;-66
2022/04/30 02:03:08;;;;;;;;;;;16.50;64.50;;;;;;2028686;28;20462;-67
2022/04/30 02:04:07;;;;;;;;;;;16.50;64.70;;;;;;2028687;28;20013;-66
2022/04/30 02:05:07;;;;;;;;;;;16.50;64.90;;;;;;2028688;28;20018;-67
2022/04/30 02:06:06;;;;;;;;;;;16.50;64.70;;;;;;2028591;28;19913;-67
2022/04/30 02:07:05;;;;;;;;;;;16.50;65.00;;;;;;2028654;28;19938;-66
2022/04/30 02:08:05;;;;;;;;;;;16.50;64.50;;;;;;2028385;28;19904;-66
2022/04/30 02:09:04;;;;;;;;;;;16.50;65.00;;;;;;2028680;28;20279;-66
2022/04/30 02:10:02;;;;;;;;;;;16.50;64.80;;;;;;2028790;28;19905;-66
2022/04/30 02:11:01;;;;;;;;;;;16.50;64.70;;;;;;2028736;28;19978;-65
2022/04/30 02:12:00;;;;;;;;;;;16.50;64.60;;;;;;2028644;28;19905;-66
2022/04/30 02:12:58;;;;;;;;;;;16.50;65.00;;;;;;2028748;28;19904;-66
2022/04/30 02:13:58;;;;;;;;;;;16.50;64.60;;;;;;2028831;28;19947;-65
2022/04/30 02:14:57;;;;;;;;;;;16.50;64.70;;;;;;2036025;28;19905;-66
2022/04/30 02:15:57;;;;;;;;;;;16.50;64.70;;;;;;2036260;28;19907;-66
2022/04/30 02:16:57;;;;;;;;;;;16.40;64.50;;;;;;2028827;28;20313;-67
2022/04/30 02:17:56;;;;;;;;;;;16.50;64.40;;;;;;2028627;28;19911;-66
2022/04/30 02:18:57;;;;;;;;;;;16.40;64.50;;;;;;2028627;28;20352;-66
2022/04/30 02:21:17;;;;;;;;;;;16.50;65.70;;;;;;2028816;28;19909;-66
2022/04/30 02:22:17;;;;;;;;;;;16.40;65.10;;;;;;2028639;28;19904;-66
2022/04/30 02:23:15;;;;;;;;;;;16.50;64.90;;;;;;2028673;28;19904;-66
2022/04/30 02:24:15;;;;;;;;;;;16.40;64.50;;;;;;2028643;28;19911;-65
2022/04/30 02:25:14;;;;;;;;;;;16.40;64.80;;;;;;2028779;28;19912;-67
2022/04/30 02:26:14;;;;;;;;;;;16.50;64.60;;;;;;2028629;28;20007;-67
2022/04/30 02:27:12;;;;;;;;;;;16.50;64.60;;;;;;2028602;28;20290;-67
2022/04/30 02:28:11;;;;;;;;;;;16.40;64.40;;;;;;2028527;28;19908;-66
2022/04/30 02:29:10;;;;;;;;;;;16.40;64.40;;;;;;2028556;28;19943;-66
2022/04/30 02:30:10;;;;;;;;;;;16.50;64.40;;;;;;2028653;28;19904;-66
2022/04/30 02:31:21;;;;;;;;;;;16.40;64.80;;;;;;2028460;28;19957;-65
2022/04/30 02:32:19;;;;;;;;;;;16.40;65.10;;;;;;2028726;28;19927;-65
2022/04/30 02:33:18;;;;;;;;;;;16.40;64.60;;;;;;2028648;28;19904;-66
2022/04/30 02:34:16;;;;;;;;;;;16.50;64.60;;;;;;2028610;28;19957;-65
2022/04/30 02:35:19;;;;;;;;;;;16.40;65.00;;;;;;2028707;28;19912;-66
2022/04/30 02:36:17;;;;;;;;;;;16.40;64.80;;;;;;2028490;28;19916;-66
2022/04/30 02:37:16;;;;;;;;;;;16.50;64.60;;;;;;2028624;28;19910;-67
2022/04/30 02:38:15;;;;;;;;;;;16.50;64.50;;;;;;2028530;28;20002;-65
2022/04/30 02:39:13;;;;;;;;;;;16.40;64.80;;;;;;2028652;28;19924;-67
2022/04/30 02:40:13;;;;;;;;;;;16.40;64.70;;;;;;2028572;28;20300;-67
2022/04/30 02:41:12;;;;;;;;;;;16.40;64.80;;;;;;2028796;28;19915;-66
2022/04/30 02:42:11;;;;;;;;;;;16.40;64.60;;;;;;2028600;28;19911;-67
2022/04/30 02:43:11;;;;;;;;;;;16.40;64.50;;;;;;2028666;28;19958;-67
2022/04/30 02:44:09;;;;;;;;;;;16.40;65.10;;;;;;2028666;28;19904;-66
2022/04/30 02:45:09;;;;;;;;;;;16.40;64.70;;;;;;2028579;28;20294;-67
2022/04/30 02:46:08;;;;;;;;;;;16.40;65.00;;;;;;2028616;28;19920;-67
2022/04/30 02:47:08;;;;;;;;;;;16.40;64.60;;;;;;2028599;28;20249;-68
2022/04/30 02:48:07;;;;;;;;;;;16.40;64.60;;;;;;2028664;28;19960;-66
2022/04/30 02:49:05;;;;;;;;;;;16.50;64.90;;;;;;2028802;28;19912;-66
2022/04/30 02:50:05;;;;;;;;;;;16.40;64.60;;;;;;2028558;28;20419;-67
2022/04/30 02:51:03;;;;;;;;;;;16.50;65.20;;;;;;2028599;28;19904;-67
2022/04/30 02:52:02;;;;;;;;;;;16.50;65.10;;;;;;2028586;28;19914;-66
2022/04/30 02:53:00;;;;;;;;;;;16.40;64.90;;;;;;2028755;28;19905;-66
2022/04/30 02:53:59;;;;;;;;;;;16.50;65.00;;;;;;2028663;28;19911;-66
2022/04/30 02:54:57;;;;;;;;;;;16.50;64.80;;;;;;2028641;28;19912;-66
2022/04/30 02:55:56;;;;;;;;;;;16.40;64.60;;;;;;2028759;28;19944;-66
2022/04/30 02:56:54;;;;;;;;;;;16.40;64.80;;;;;;2028108;28;19977;-66
2022/04/30 03:00:35;;;;;;;;;;;16.40;64.80;;;;;;2028747;28;19904;-67
2022/04/30 03:01:33;;;;;;;;;;;16.40;64.50;;;;;;2028913;28;20267;-66
2022/04/30 03:02:32;;;;;;;;;;;16.40;64.30;;;;;;2028905;28;19904;-67
2022/04/30 03:03:30;;;;;;;;;;;16.40;64.50;;;;;;2028911;28;19912;-66
2022/04/30 03:04:29;;;;;;;;;;;16.40;64.50;;;;;;2028876;28;19911;-66
2022/04/30 03:05:27;;;;;;;;;;;16.40;64.50;;;;;;2028722;28;19973;-67
2022/04/30 03:06:26;;;;;;;;;;;16.40;64.30;;;;;;2028483;28;20295;-66
2022/04/30 03:07:24;;;;;;;;;;;16.40;64.60;;;;;;2028541;28;19958;-66
2022/04/30 03:08:25;;;;;;;;;;;16.40;64.50;;;;;;2028809;28;19904;-67
2022/04/30 03:09:23;;;;;;;;;;;16.40;64.60;;;;;;2028814;28;19905;-67
2022/04/30 03:10:22;;;;;;;;;;;16.50;64.50;;;;;;2028629;28;19904;-66
2022/04/30 03:11:20;;;;;;;;;;;16.40;64.50;;;;;;2028798;28;19971;-67
2022/04/30 03:12:19;;;;;;;;;;;16.40;64.40;;;;;;2028677;28;20283;-67
2022/04/30 03:13:18;;;;;;;;;;;16.40;64.70;;;;;;2028857;28;19912;-67
2022/04/30 03:14:16;;;;;;;;;;;16.40;64.70;;;;;;2028799;28;19905;-67
2022/04/30 03:15:17;;;;;;;;;;;16.40;64.80;;;;;;2028566;28;19911;-67
2022/04/30 03:21:44;;;;;;;;;;;16.40;64.50;;;;;;2030035;28;19904;-67
2022/04/30 03:22:42;;;;;;;;;;;16.40;64.70;;;;;;2029969;28;19904;-67
2022/04/30 03:23:43;;;;;;;;;;;16.40;64.50;;;;;;2029797;28;20349;-66
2022/04/30 03:24:41;;;;;;;;;;;16.40;65.10;;;;;;2029878;28;19908;-66
2022/04/30 03:25:40;;;;;;;;;;;16.40;64.80;;;;;;2029782;28;19912;-66
2022/04/30 03:26:38;;;;;;;;;;;16.40;65.00;;;;;;2029887;28;19904;-66
2022/04/30 03:27:37;;;;;;;;;;;16.30;64.60;;;;;;2029972;28;20019;-65
2022/04/30 03:28:37;;;;;;;;;;;16.40;64.90;;;;;;2029710;28;20378;-66
2022/04/30 03:29:35;;;;;;;;;;;16.40;65.20;;;;;;2029814;28;20105;-66
2022/04/30 03:30:33;;;;;;;;;;;16.40;65.00;;;;;;2029896;28;20015;-65
2022/04/30 03:31:32;;;;;;;;;;;16.40;64.80;;;;;;2029773;28;20356;-66
2022/04/30 03:32:31;;;;;;;;;;;16.40;64.90;;;;;;2029811;28;20037;-67
2022/04/30 03:33:29;;;;;;;;;;;16.40;64.80;;;;;;2030013;28;19950;-66
2022/04/30 03:34:32;;;;;;;;;;;16.40;65.30;;;;;;2030036;28;19915;-66
2022/04/30 03:35:31;;;;;;;;;;;16.40;64.80;;;;;;2037482;28;19904;-66
2022/04/30 03:36:29;;;;;;;;;;;16.40;64.80;;;;;;2037223;28;19915;-66
2022/04/30 03:37:28;;;;;;;;;;;16.40;64.80;;;;;;2029861;28;19983;-66
2022/04/30 03:38:26;;;;;;;;;;;16.40;64.80;;;;;;2029805;28;20271;-65
2022/04/30 03:39:25;;;;;;;;;;;16.40;65.00;;;;;;2029969;28;19904;-66
2022/04/30 03:40:23;;;;;;;;;;;16.40;65.20;;;;;;2029699;28;20267;-66
2022/04/30 03:41:21;;;;;;;;;;;16.40;65.10;;;;;;2029921;28;19916;-66
2022/04/30 03:42:20;;;;;;;;;;;16.40;65.00;;;;;;2029952;28;19911;-66
2022/04/30 03:43:18;;;;;;;;;;;16.40;65.10;;;;;;2029847;28;20423;-66
2022/04/30 03:44:17;;;;;;;;;;;16.30;64.70;;;;;;2029734;28;20290;-66
2022/04/30 03:45:15;;;;;;;;;;;16.40;64.80;;;;;;2029705;28;19904;-66
2022/04/30 03:46:13;;;;;;;;;;;16.40;64.90;;;;;;2029764;28;19908;-67
2022/04/30 03:47:12;;;;;;;;;;;16.40;64.60;;;;;;2029810;28;19927;-66
2022/04/30 03:48:12;;;;;;;;;;;16.40;65.00;;;;;;2029735;28;19999;-66
2022/04/30 03:49:11;;;;;;;;;;;16.40;65.00;;;;;;2029850;28;19905;-66
2022/04/30 03:50:09;;;;;;;;;;;16.40;64.80;;;;;;2029769;28;19906;-66
2022/04/30 03:51:08;;;;;;;;;;;16.40;65.30;;;;;;2029672;28;20319;-66
2022/04/30 03:52:09;;;;;;;;;;;16.30;65.20;;;;;;2029734;28;19912;-66
2022/04/30 03:53:13;;;;;;;;;;;16.40;65.00;;;;;;2029756;28;20356;-65
2022/04/30 03:54:12;;;;;;;;;;;16.40;65.00;;;;;;2029613;28;19962;-65
2022/04/30 03:55:10;;;;;;;;;;;16.30;64.90;;;;;;2029686;28;19999;-65
2022/04/30 03:56:08;;;;;;;;;;;16.40;65.00;;;;;;2029789;28;19904;-67
2022/04/30 03:57:07;;;;;;;;;;;16.40;65.00;;;;;;2029616;28;19911;-67
2022/04/30 03:58:05;;;;;;;;;;;16.40;64.80;;;;;;2029632;28;19904;-66
2022/04/30 03:59:04;;;;;;;;;;;16.30;65.00;;;;;;2029565;28;20351;-66
2022/04/30 04:00:04;;;;;;;;;;;16.40;64.90;;;;;;2029802;28;19904;-67
2022/04/30 04:01:02;;;;;;;;;;;16.30;65.00;;;;;;2029764;28;19911;-67
2022/04/30 04:02:01;;;;;;;;;;;16.40;64.70;;;;;;2029675;28;19909;-66
2022/04/30 04:03:00;;;;;;;;;;;16.30;64.90;;;;;;2029650;28;19905;-66
2022/04/30 04:03:59;;;;;;;;;;;16.30;65.10;;;;;;2029619;28;19996;-66
2022/04/30 04:04:58;;;;;;;;;;;16.30;65.20;;;;;;2029733;28;19905;-66
2022/04/30 04:05:58;;;;;;;;;;;16.40;65.00;;;;;;2029504;28;19905;-67
2022/04/30 04:06:57;;;;;;;;;;;16.20;65.20;;;;;;2029679;28;19904;-67
2022/04/30 04:07:56;;;;;;;;;;;16.30;65.00;;;;;;2029630;28;20348;-66
2022/04/30 04:08:55;;;;;;;;;;;16.30;65.20;;;;;;2029666;28;20417;-66
2022/04/30 04:09:54;;;;;;;;;;;16.30;65.40;;;;;;2029722;28;19911;-66
2022/04/30 04:10:52;;;;;;;;;;;16.30;65.10;;;;;;2029392;28;19944;-66
2022/04/30 04:11:51;;;;;;;;;;;16.30;64.90;;;;;;2029569;28;19909;-66
2022/04/30 04:12:50;;;;;;;;;;;16.30;64.80;;;;;;2029691;28;20379;-66
2022/04/30 04:17:42;;;;;;;;;;;16.40;65.30;;;;;;2029757;28;19908;-66
2022/04/30 04:18:41;;;;;;;;;;;16.30;65.10;;;;;;2036976;28;19904;-65
2022/04/30 04:19:39;;;;;;;;;;;16.30;65.30;;;;;;2037134;28;20029;-66
2022/04/30 04:20:37;;;;;;;;;;;16.30;66.00;;;;;;2036267;28;19904;-67
2022/04/30 04:21:36;;;;;;;;;;;16.30;65.40;;;;;;2034271;28;19971;-66
2022/04/30 04:22:34;;;;;;;;;;;16.30;65.40;;;;;;2032587;28;19904;-67
2022/04/30 04:25:58;;;;;;;;;;;16.30;66.20;;;;;;2031105;28;19905;-67
2022/04/30 04:26:08;;;;;;;;;;;16.30;65.20;;;;;;2030073;28;19904;-67
2022/04/30 04:27:07;;;;;;;;;;;16.30;64.90;;;;;;2029747;28;19948;-67
2022/04/30 04:28:06;;;;;;;;;;;16.30;65.20;;;;;;2030151;28;19912;-66
2022/04/30 04:29:04;;;;;;;;;;;16.30;65.30;;;;;;2029930;28;19905;-66
2022/04/30 04:30:03;;;;;;;;;;;16.60;65.40;;;;;;2029660;28;19904;-67
2022/04/30 04:31:01;;;;;;;;;;;16.30;65.10;;;;;;2029378;28;19919;-66
2022/04/30 04:32:00;;;;;;;;;;;16.30;65.20;;;;;;2029388;28;19911;-66
2022/04/30 04:32:58;;;;;;;;;;;16.30;64.90;;;;;;2029749;28;19904;-66
2022/04/30 04:33:57;;;;;;;;;;;16.30;65.10;;;;;;2036866;28;20266;-66
2022/04/30 04:34:55;;;;;;;;;;;16.40;65.40;;;;;;2037285;28;19903;-66
2022/04/30 04:35:55;;;;;;;;;;;16.40;65.40;;;;;;2030071;28;19904;-66
2022/04/30 04:36:53;;;;;;;;;;;16.40;65.30;;;;;;2029308;28;19904;-66
2022/04/30 04:37:52;;;;;;;;;;;16.40;64.90;;;;;;2029538;28;20027;-66
2022/04/30 04:38:50;;;;;;;;;;;16.40;64.90;;;;;;2029637;28;19904;-66
2022/04/30 04:39:49;;;;;;;;;;;16.40;64.90;;;;;;2036927;28;20337;-67
2022/04/30 04:40:47;;;;;;;;;;;16.40;64.80;;;;;;2037028;28;20025;-67
2022/04/30 04:41:45;;;;;;;;;;;16.30;64.90;;;;;;2029873;28;19947;-65
2022/04/30 04:42:45;;;;;;;;;;;16.30;64.80;;;;;;2036766;28;19904;-67
2022/04/30 04:43:43;;;;;;;;;;;16.30;64.80;;;;;;2036876;28;19910;-66
2022/04/30 04:44:42;;;;;;;;;;;16.40;65.00;;;;;;2029779;28;19911;-66
2022/04/30 04:45:40;;;;;;;;;;;16.40;65.20;;;;;;2029548;28;19911;-66
2022/04/30 04:46:39;;;;;;;;;;;16.30;65.20;;;;;;2029179;28;20359;-66
2022/04/30 04:47:40;;;;;;;;;;;16.40;65.60;;;;;;2029448;28;19904;-66
2022/04/30 04:48:38;;;;;;;;;;;16.40;65.20;;;;;;2029311;28;19934;-67
2022/04/30 04:49:37;;;;;;;;;;;16.40;65.30;;;;;;2029377;28;20266;-66
2022/04/30 04:50:35;;;;;;;;;;;16.40;65.10;;;;;;2029254;28;20363;-66
2022/04/30 04:51:34;;;;;;;;;;;16.30;64.60;;;;;;2028647;28;19915;-66
2022/04/30 04:52:32;;;;;;;;;;;16.40;65.30;;;;;;2028797;28;19994;-66
2022/04/30 04:53:31;;;;;;;;;;;16.40;64.90;;;;;;2029281;28;19908;-67
2022/04/30 04:54:29;;;;;;;;;;;16.30;65.20;;;;;;2029292;28;19908;-67
2022/04/30 04:55:28;;;;;;;;;;;16.30;65.20;;;;;;2029195;28;20297;-68
2022/04/30 04:56:26;;;;;;;;;;;16.50;65.30;;;;;;2029207;28;19958;-66
2022/04/30 04:57:25;;;;;;;;;;;16.40;65.70;;;;;;2029281;28;20257;-67
2022/04/30 04:58:23;;;;;;;;;;;16.40;65.70;;;;;;2029260;28;19952;-67
2022/04/30 04:59:22;;;;;;;;;;;16.30;65.40;;;;;;2029198;28;19908;-67
2022/04/30 05:00:20;;;;;;;;;;;16.40;65.40;;;;;;2029317;28;20318;-67
2022/04/30 05:01:19;;;;;;;;;;;16.40;65.30;;;;;;2029259;28;20256;-66
2022/04/30 05:02:18;;;;;;;;;;;16.40;65.10;;;;;;2029118;28;19912;-66
2022/04/30 05:03:16;;;;;;;;;;;16.30;65.40;;;;;;2029151;28;19912;-66
2022/04/30 05:04:15;;;;;;;;;;;16.30;65.10;;;;;;2029055;28;19958;-66
2022/04/30 05:05:14;;;;;;;;;;;16.40;65.30;;;;;;2029152;28;20378;-66
2022/04/30 05:06:12;;;;;;;;;;;16.30;65.20;;;;;;2028913;28;19912;-68
2022/04/30 05:07:10;;;;;;;;;;;16.40;65.30;;;;;;2029174;28;19940;-66
2022/04/30 05:08:09;;;;;;;;;;;16.40;65.30;;;;;;2029195;28;19904;-67
2022/04/30 05:09:07;;;;;;;;;;;16.30;65.20;;;;;;2029185;28;20271;-65
2022/04/30 05:10:06;;;;;;;;;;;16.30;65.50;;;;;;2029106;28;19908;-66
2022/04/30 05:11:04;;;;;;;;;;;16.30;65.50;;;;;;2028962;28;19905;-67
2022/04/30 05:12:03;;;;;;;;;;;16.30;65.40;;;;;;2029131;28;19904;-66
2022/04/30 05:13:02;;;;;;;;;;;16.30;65.30;;;;;;2029093;28;20057;-66
2022/04/30 05:14:00;;;;;;;;;;;16.30;64.80;;;;;;2029052;28;19908;-66
2022/04/30 05:14:58;;;;;;;;;;;16.40;65.20;;;;;;2029176;28;19904;-66
2022/04/30 05:15:57;;;;;;;;;;;16.40;65.30;;;;;;2029105;28;19905;-68
2022/04/30 05:16:55;;;;;;;;;;;16.40;65.40;;;;;;2036451;28;20262;-66
2022/04/30 05:17:54;;;;;;;;;;;16.30;65.10;;;;;;2036532;28;19953;-66
2022/04/30 05:18:53;;;;;;;;;;;16.40;65.00;;;;;;2029626;28;19908;-67
2022/04/30 05:19:51;;;;;;;;;;;16.40;65.20;;;;;;2028979;28;19908;-67
2022/04/30 05:20:50;;;;;;;;;;;16.40;65.20;;;;;;2036426;28;19972;-67
2022/04/30 05:21:48;;;;;;;;;;;16.30;65.20;;;;;;2036646;28;19903;-68
2022/04/30 05:22:48;;;;;;;;;;;16.30;65.20;;;;;;2020879;28;20007;-66
2022/04/30 05:23:46;;;;;;;;;;;16.30;65.20;;;;;;2020512;28;19957;-65
2022/04/30 05:24:45;;;;;;;;;;;16.30;65.00;;;;;;2028702;28;19904;-66
2022/04/30 05:25:44;;;;;;;;;;;16.30;65.20;;;;;;2029117;28;19904;-66
2022/04/30 05:26:42;;;;;;;;;;;16.30;65.50;;;;;;2029020;28;19905;-67
2022/04/30 05:27:41;;;;;;;;;;;16.40;65.50;;;;;;2029283;28;20271;-67
2022/04/30 05:28:39;;;;;;;;;;;16.40;66.50;;;;;;2036324;28;19904;-66
2022/04/30 05:29:37;;;;;;;;;;;16.40;65.50;;;;;;2036528;28;19939;-66
2022/04/30 05:30:36;;;;;;;;;;;16.40;65.40;;;;;;2029596;28;20264;-66
2022/04/30 05:31:35;;;;;;;;;;;16.40;66.00;;;;;;2028977;28;19914;-66
2022/04/30 05:32:33;;;;;;;;;;;16.40;65.40;;;;;;2028896;28;19927;-66
2022/04/30 05:33:34;;;;;;;;;;;16.40;65.60;;;;;;2029438;28;19908;-65
2022/04/30 05:34:33;;;;;;;;;;;16.40;65.80;;;;;;2029056;28;19950;-66
2022/04/30 05:35:31;;;;;;;;;;;16.40;65.20;;;;;;2028948;28;19909;-66
2022/04/30 05:36:30;;;;;;;;;;;16.40;65.00;;;;;;2028973;28;19912;-66
2022/04/30 05:37:28;;;;;;;;;;;16.40;64.80;;;;;;2029561;28;19927;-66
2022/04/30 05:38:26;;;;;;;;;;;16.40;64.50;;;;;;2029050;28;19905;-67
2022/04/30 05:39:26;;;;;;;;;;;16.40;64.80;;;;;;2028852;28;20347;-66
2022/04/30 05:40:24;;;;;;;;;;;16.40;65.10;;;;;;2028995;28;19904;-66
2022/04/30 05:41:22;;;;;;;;;;;16.40;64.90;;;;;;2028833;28;19969;-66
2022/04/30 05:42:21;;;;;;;;;;;16.40;64.70;;;;;;2028968;28;19927;-67
2022/04/30 05:43:19;;;;;;;;;;;16.40;64.90;;;;;;2028374;28;20274;-67
2022/04/30 05:44:18;;;;;;;;;;;16.40;65.40;;;;;;2028789;28;19905;-65
2022/04/30 05:45:16;;;;;;;;;;;16.40;65.30;;;;;;2028893;28;19951;-66
2022/04/30 05:46:15;;;;;;;;;;;16.40;64.90;;;;;;2028925;28;19922;-66
2022/04/30 05:47:13;;;;;;;;;;;16.40;64.90;;;;;;2028800;28;19951;-67
2022/04/30 05:48:11;;;;;;;;;;;16.40;64.50;;;;;;2028910;28;19909;-67
2022/04/30 05:49:10;;;;;;;;;;;16.40;65.00;;;;;;2028881;28;19952;-66
2022/04/30 05:50:11;;;;;;;;;;;16.40;64.60;;;;;;2028745;28;20374;-65
2022/04/30 05:51:10;;;;;;;;;;;16.40;64.50;;;;;;2028782;28;19911;-66
2022/04/30 05:52:08;;;;;;;;;;;16.40;64.80;;;;;;2028742;28;20314;-66
2022/04/30 05:53:07;;;;;;;;;;;16.50;65.00;;;;;;2028932;28;19997;-66
2022/04/30 05:54:05;;;;;;;;;;;16.40;65.20;;;;;;2028797;28;19977;-66
2022/04/30 05:55:05;;;;;;;;;;;16.50;65.20;;;;;;2028196;28;20391;-66
2022/04/30 05:56:03;;;;;;;;;;;16.50;65.40;;;;;;2028232;28;19993;-66
2022/04/30 05:57:02;;;;;;;;;;;16.50;65.40;;;;;;2028797;28;19912;-67
2022/04/30 05:58:00;;;;;;;;;;;16.50;65.10;;;;;;2028824;28;20365;-66
2022/04/30 05:58:59;;;;;;;;;;;16.50;65.60;;;;;;2028888;28;20014;-67
2022/04/30 05:59:57;;;;;;;;;;;16.30;65.40;;;;;;2028909;28;19905;-65
2022/04/30 06:00:56;;;;;;;;;;;16.50;66.60;;;;;;2028749;28;20256;-66
2022/04/30 06:01:54;;;;;;;;;;;16.40;65.30;;;;;;2028793;28;20272;-66
2022/04/30 06:02:54;;;;;;;;;;;16.50;64.90;;;;;;2028752;28;19955;-66
2022/04/30 06:03:53;;;;;;;;;;;16.40;65.80;;;;;;2028719;28;19916;-67